Terminal Aerodrome Forecast
Issued by NWS Tampa Bay Area, FL

Home | Current Version | Previous Version | Text Only | Print | Product List | Glossary On
Versions: 1 2 3 4 5 6 7 8 9 10 11 12
000
FTUS42 KTBW 241700
TAFSRQ
TAF
KSRQ 241740Z 2418/2518 05010KT P6SM FEW040 FEW250
     FM250100 03005KT P6SM SKC
     FM251400 02008KT P6SM FEW040=

USA.gov is the U.S. government's official web portal to all federal, state and local government web resources and services.